createdAt,value
2019-05-06T00:00:58.326Z,41
2019-05-06T00:06:00.941Z,40.9
2019-05-06T00:11:04.743Z,40.9
2019-05-06T00:16:06.687Z,40.9
2019-05-06T00:21:08.463Z,40.8
2019-05-06T00:26:10.240Z,40.8
2019-05-06T00:31:13.891Z,40.7
2019-05-06T00:36:17.864Z,40.6
2019-05-06T00:41:19.648Z,40.6
2019-05-06T00:46:21.419Z,40.6
2019-05-06T00:51:24.130Z,40.5
2019-05-06T00:56:26.098Z,40.4
2019-05-06T01:01:29.729Z,40.4
2019-05-06T01:06:31.678Z,40.4
2019-05-06T01:11:34.571Z,40.3
2019-05-06T01:16:36.470Z,40.2
2019-05-06T01:21:38.299Z,40.2
2019-05-06T01:26:40.032Z,40.1
2019-05-06T01:31:43.695Z,40.1
2019-05-06T01:36:47.152Z,40.1
2019-05-06T01:41:48.883Z,40
2019-05-06T01:46:50.618Z,40
2019-05-06T01:51:54.311Z,39.9
2019-05-06T01:56:56.260Z,39.9
2019-05-06T02:02:01.085Z,39.8
2019-05-06T02:07:03.742Z,39.8
2019-05-06T02:12:05.706Z,39.7
2019-05-06T02:17:07.415Z,39.7
2019-05-06T02:22:09.130Z,39.6
2019-05-06T02:27:10.849Z,39.6
2019-05-06T02:32:24.722Z,39.6
2019-05-06T02:37:26.886Z,39.5
2019-05-06T02:42:28.634Z,39.5
2019-05-06T02:47:30.376Z,39.4
2019-05-06T02:52:32.915Z,39.4
2019-05-06T02:57:34.889Z,39.4
2019-05-06T03:02:43.172Z,39.3
2019-05-06T03:07:45.602Z,39.2
2019-05-06T03:12:47.328Z,39.2
2019-05-06T03:17:49.061Z,39.2
2019-05-06T03:22:54.068Z,39.1
2019-05-06T03:27:56.155Z,39.1
2019-05-06T03:33:29.943Z,39.1
2019-05-06T03:38:33.812Z,39
2019-05-06T03:43:35.610Z,38.9
2019-05-06T03:48:37.313Z,38.9
2019-05-06T03:53:39.013Z,38.9
2019-05-06T03:58:43.449Z,38.9
2019-05-06T04:03:51.280Z,38.8
2019-05-06T04:08:54.090Z,38.7
2019-05-06T04:13:55.845Z,38.7
2019-05-06T04:18:57.633Z,38.7
2019-05-06T04:23:59.349Z,38.6
2019-05-06T04:29:03.541Z,38.6
2019-05-06T04:34:13.728Z,38.6
2019-05-06T04:39:16.315Z,38.5
2019-05-06T04:44:18.017Z,38.5
2019-05-06T04:49:19.730Z,38.4
2019-05-06T04:54:25.962Z,38.4
2019-05-06T04:59:28.232Z,38.4
2019-05-06T05:04:32.410Z,38.3
2019-05-06T05:09:35.347Z,38.2
2019-05-06T05:14:37.002Z,38.2
2019-05-06T05:19:38.668Z,38.2
2019-05-06T05:24:42.374Z,38.2
2019-05-06T05:29:44.165Z,38.1
2019-05-06T05:34:45.816Z,38.1
2019-05-06T05:39:47.506Z,38.1
2019-05-06T05:44:49.184Z,38.1
2019-05-06T05:49:52.446Z,38
2019-05-06T05:54:55.590Z,38
2019-05-06T05:59:57.319Z,37.9
2019-05-06T06:04:58.958Z,37.9
2019-05-06T06:10:02.639Z,37.9
2019-05-06T06:15:04.429Z,37.8
2019-05-06T06:20:06.076Z,37.8
2019-05-06T06:25:07.720Z,37.7
2019-05-06T06:30:09.338Z,37.7
2019-05-06T06:35:14.233Z,37.7
2019-05-06T06:40:16.011Z,37.6
2019-05-06T06:45:17.633Z,37.6
2019-05-06T06:50:19.273Z,37.6
2019-05-06T06:55:22.514Z,37.6
2019-05-06T07:00:24.323Z,37.5
2019-05-06T07:05:28.392Z,37.4
2019-05-06T07:10:32.144Z,37.2
2019-05-06T07:15:34.008Z,37.2
2019-05-06T07:20:35.620Z,37.2
2019-05-06T07:25:37.191Z,37.1
2019-05-06T07:30:38.766Z,37.1
2019-05-06T07:35:41.565Z,37.1
2019-05-06T07:40:45.012Z,37
2019-05-06T07:45:46.652Z,37
2019-05-06T07:50:49.255Z,37
2019-05-06T07:55:52.453Z,36.9
2019-05-06T08:00:54.231Z,36.9
2019-05-06T08:05:58.703Z,36.9
2019-05-06T08:11:02.624Z,36.9
2019-05-06T08:16:04.401Z,36.8
2019-05-06T08:21:06.028Z,36.8
2019-05-06T08:26:12.727Z,36.7
2019-05-06T08:31:14.700Z,36.7
2019-05-06T08:36:16.324Z,36.7
2019-05-06T08:41:17.936Z,36.7
2019-05-06T08:46:19.593Z,36.6
2019-05-06T08:56:27.680Z,36.6
2019-05-06T09:01:29.312Z,36.6
2019-05-06T09:06:33.967Z,36.5
2019-05-06T09:11:35.855Z,36.5
2019-05-06T09:16:37.477Z,36.5
2019-05-06T09:21:42.392Z,36.4
2019-05-06T09:26:46.802Z,36.4
2019-05-06T09:31:48.429Z,36.4
2019-05-06T09:36:52.545Z,36.4
2019-05-06T09:41:57.974Z,36.3
2019-05-06T09:47:01.842Z,36.3
2019-05-06T09:52:03.984Z,36.2
2019-05-06T09:57:05.600Z,36.2
2019-05-06T10:02:07.218Z,36.2
2019-05-06T10:07:08.841Z,36.2
2019-05-06T10:12:12.637Z,36.1
2019-05-06T10:17:14.489Z,36.1
2019-05-06T10:22:16.080Z,36.1
2019-05-06T10:27:17.704Z,36.1
2019-05-06T10:32:19.307Z,36.1
2019-05-06T10:37:20.911Z,36
2019-05-06T10:42:23.089Z,36
2019-05-06T10:47:24.828Z,35.9
2019-05-06T10:52:26.449Z,35.9
2019-05-06T10:57:28.062Z,35.9
2019-05-06T11:02:29.689Z,35.9
2019-05-06T11:07:32.634Z,35.9
2019-05-06T11:12:36.544Z,35.8
2019-05-06T11:17:38.179Z,35.8
2019-05-06T11:22:39.775Z,35.8
2019-05-06T11:27:44.899Z,35.7
2019-05-06T11:32:46.651Z,35.7
2019-05-06T11:37:50.720Z,35.7
2019-05-06T11:42:53.584Z,35.7
2019-05-06T11:47:56.009Z,35.7
2019-05-06T11:52:57.748Z,35.6
2019-05-06T11:57:59.364Z,35.6
2019-05-06T12:03:02.342Z,35.6
2019-05-06T12:08:07.926Z,35.6
2019-05-06T12:13:12.068Z,35.6
2019-05-06T12:18:13.893Z,35.5
2019-05-06T12:23:15.825Z,35.5
2019-05-06T12:28:17.738Z,35.4
2019-05-06T12:33:19.411Z,35.4
2019-05-06T12:38:27.299Z,35.4
2019-05-06T12:43:33.036Z,35.4
2019-05-06T12:48:34.975Z,35.4
2019-05-06T12:53:35.597Z,35.3
2019-05-06T12:58:37.164Z,35.3
2019-05-06T13:03:38.991Z,35.3
2019-05-06T13:08:53.751Z,35.2
2019-05-06T13:14:00.706Z,35.2
2019-05-06T13:19:03.265Z,35.2
2019-05-06T13:24:05.018Z,35.2
2019-05-06T13:29:06.619Z,35.2
2019-05-06T13:34:08.553Z,35.1
2019-05-06T13:39:14.594Z,35.1
2019-05-06T13:44:16.524Z,35.1
2019-05-06T13:49:18.081Z,35.1
2019-05-06T13:54:22.118Z,35.1
2019-05-06T13:59:23.882Z,35
2019-05-06T14:04:25.465Z,35
2019-05-06T14:09:31.533Z,35
2019-05-06T14:14:34.097Z,34.9
2019-05-06T14:19:35.637Z,34.9
2019-05-06T14:24:37.173Z,34.9
2019-05-06T14:29:38.737Z,34.9
2019-05-06T14:34:40.307Z,34.9
2019-05-06T14:39:52.506Z,34.8
2019-05-06T14:44:54.867Z,34.8
2019-05-06T14:49:56.409Z,34.8
2019-05-06T14:54:58.204Z,34.7
2019-05-06T14:59:58.786Z,34.7
2019-05-06T15:05:02.649Z,34.7
2019-05-06T15:10:18.797Z,34.7
2019-05-06T15:15:22.857Z,34.7
2019-05-06T15:20:24.514Z,34.7
2019-05-06T15:25:26.101Z,34.6
2019-05-06T15:30:27.632Z,34.6
2019-05-06T15:35:29.168Z,34.6
2019-05-06T15:40:33.638Z,34.6
2019-05-06T15:45:37.593Z,34.6
2019-05-06T15:50:42.177Z,34.6
2019-05-06T15:55:47.034Z,34.5
2019-05-06T16:00:48.624Z,34.5
2019-05-06T16:05:52.787Z,34.5
2019-05-06T16:10:58.786Z,34.4
2019-05-06T16:16:02.664Z,34.4
2019-05-06T16:21:04.507Z,34.4
2019-05-06T16:26:06.047Z,34.4
2019-05-06T16:31:08.255Z,34.4
2019-05-06T16:36:10.104Z,34.4
2019-05-06T16:41:13.744Z,34.3
2019-05-06T16:46:17.370Z,34.3
2019-05-06T16:51:19.008Z,34.3
2019-05-06T16:56:22.122Z,34.2
2019-05-06T17:01:23.863Z,34.2
2019-05-06T17:06:25.431Z,34.2
2019-05-06T17:11:30.981Z,34.2
2019-05-06T17:16:34.934Z,34.2
2019-05-06T17:21:36.480Z,34.2
2019-05-06T17:26:37.981Z,34.1
2019-05-06T17:31:39.478Z,34.1
2019-05-06T17:36:42.094Z,34.1
2019-05-06T17:41:48.489Z,34.1
2019-05-06T17:46:50.479Z,34.1
2019-05-06T17:51:52.048Z,35.8
2019-05-06T17:56:53.689Z,37.6
2019-05-06T18:01:55.363Z,38.8
2019-05-06T18:06:57.092Z,39.8
2019-05-06T18:11:59.653Z,40.7
2019-05-06T18:17:03.585Z,41.6
2019-05-06T18:22:05.529Z,42.2
2019-05-06T18:27:05.696Z,42.9
2019-05-06T18:32:05.864Z,43.5
2019-05-06T18:37:06.027Z,43.9
2019-05-06T18:42:16.592Z,44.4
2019-05-06T18:47:19.298Z,44.7
2019-05-06T18:52:19.738Z,45.1
2019-05-06T18:57:19.972Z,45.4
2019-05-06T19:02:20.236Z,45.6
2019-05-06T19:07:22.034Z,45.9
2019-05-06T19:12:30.450Z,46.3
2019-05-06T19:17:33.550Z,46.6
2019-05-06T19:22:33.961Z,46.6
2019-05-06T19:27:34.349Z,46.9
2019-05-06T19:32:35.274Z,47.2
2019-05-06T19:37:35.583Z,47.3
2019-05-06T19:42:45.999Z,47.3
2019-05-06T19:47:47.306Z,47.3
2019-05-06T19:52:47.540Z,47.2
2019-05-06T19:57:47.791Z,47.2
2019-05-06T20:02:48.023Z,47.2
2019-05-06T20:07:52.265Z,47.2
2019-05-06T20:12:59.336Z,47.1
2019-05-06T20:18:03.002Z,47.1
2019-05-06T20:23:03.449Z,47.1
2019-05-06T20:28:03.682Z,47
2019-05-06T20:33:03.916Z,47
2019-05-06T20:38:04.424Z,46.9
2019-05-06T20:43:16.009Z,46.9
2019-05-06T20:48:17.850Z,46.9
2019-05-06T20:53:18.119Z,46.8
2019-05-06T20:58:18.400Z,46.8
2019-05-06T21:03:18.680Z,46.7
2019-05-06T21:08:18.939Z,46.7
2019-05-06T21:13:29.342Z,46.7
2019-05-06T21:18:32.221Z,46.6
2019-05-06T21:23:32.827Z,46.6
2019-05-06T21:28:33.076Z,46.6
2019-05-06T21:33:33.339Z,46.5
2019-05-06T21:38:33.587Z,46.5
2019-05-06T21:43:45.649Z,46.4
2019-05-06T21:48:46.581Z,46.4
2019-05-06T21:53:46.809Z,46.4
2019-05-06T21:58:47.043Z,46.3
2019-05-06T22:03:47.279Z,46.2
2019-05-06T22:08:47.527Z,46.2
2019-05-06T22:13:58.731Z,46.2
2019-05-06T22:19:02.544Z,46.1
2019-05-06T22:24:04.625Z,46.1
2019-05-06T22:29:05.081Z,46.1
2019-05-06T22:34:05.339Z,46
2019-05-06T22:39:05.564Z,45.9
2019-05-06T22:44:13.474Z,45.9
2019-05-06T22:49:14.367Z,45.9
2019-05-06T22:54:14.588Z,45.8
2019-05-06T22:59:14.824Z,45.8
2019-05-06T23:04:15.045Z,45.7
2019-05-06T23:09:15.243Z,45.7
2019-05-06T23:14:27.832Z,45.6
2019-05-06T23:19:28.104Z,45.6
2019-05-06T23:24:28.332Z,45.5
2019-05-06T23:29:28.570Z,45.5
2019-05-06T23:34:28.789Z,45.4
2019-05-06T23:39:29.247Z,45.4
2019-05-06T23:44:42.803Z,45.3
2019-05-06T23:49:45.501Z,45.2
2019-05-06T23:54:45.701Z,45.2
2019-05-06T23:59:45.909Z,45.2
